sensor_id;sensor_type;location;lat;lon;timestamp;P1;durP1;ratioP1;P2;durP2;ratioP2
70545;SDS011;58098;51.680;5.134;2023-11-21T00:02:12;48.83;;;19.00;;
70545;SDS011;58098;51.680;5.134;2023-11-21T00:04:37;39.33;;;18.53;;
70545;SDS011;58098;51.680;5.134;2023-11-21T00:07:03;41.90;;;17.75;;
70545;SDS011;58098;51.680;5.134;2023-11-21T00:09:28;40.67;;;18.47;;
70545;SDS011;58098;51.680;5.134;2023-11-21T00:11:53;47.60;;;18.30;;
70545;SDS011;58098;51.680;5.134;2023-11-21T00:14:19;49.83;;;19.83;;
70545;SDS011;58098;51.680;5.134;2023-11-21T00:16:44;56.00;;;20.30;;
70545;SDS011;58098;51.680;5.134;2023-11-21T00:19:10;50.25;;;18.98;;
70545;SDS011;58098;51.680;5.134;2023-11-21T00:21:36;42.45;;;18.02;;
70545;SDS011;58098;51.680;5.134;2023-11-21T00:24:01;50.57;;;18.03;;
70545;SDS011;58098;51.680;5.134;2023-11-21T00:26:26;54.40;;;18.90;;
70545;SDS011;58098;51.680;5.134;2023-11-21T00:28:52;51.00;;;20.40;;
70545;SDS011;58098;51.680;5.134;2023-11-21T00:31:17;54.83;;;20.07;;
70545;SDS011;58098;51.680;5.134;2023-11-21T00:33:43;44.47;;;19.07;;
70545;SDS011;58098;51.680;5.134;2023-11-21T00:36:08;53.03;;;18.47;;
70545;SDS011;58098;51.680;5.134;2023-11-21T00:38:35;46.67;;;18.80;;
70545;SDS011;58098;51.680;5.134;2023-11-21T00:41:01;51.42;;;19.42;;
70545;SDS011;58098;51.680;5.134;2023-11-21T00:43:26;54.73;;;18.97;;
70545;SDS011;58098;51.680;5.134;2023-11-21T00:45:51;51.67;;;20.03;;
70545;SDS011;58098;51.680;5.134;2023-11-21T00:48:17;53.50;;;20.43;;
70545;SDS011;58098;51.680;5.134;2023-11-21T00:50:43;56.33;;;19.25;;
70545;SDS011;58098;51.680;5.134;2023-11-21T00:53:08;52.80;;;18.55;;
70545;SDS011;58098;51.680;5.134;2023-11-21T00:55:34;60.17;;;19.90;;
70545;SDS011;58098;51.680;5.134;2023-11-21T00:57:59;52.90;;;18.30;;
70545;SDS011;58098;51.680;5.134;2023-11-21T01:00:27;44.08;;;18.58;;
70545;SDS011;58098;51.680;5.134;2023-11-21T01:02:53;47.40;;;19.87;;
70545;SDS011;58098;51.680;5.134;2023-11-21T01:05:18;46.73;;;17.67;;
70545;SDS011;58098;51.680;5.134;2023-11-21T01:07:44;48.47;;;19.63;;
70545;SDS011;58098;51.680;5.134;2023-11-21T01:10:10;43.00;;;18.00;;
70545;SDS011;58098;51.680;5.134;2023-11-21T01:12:36;40.92;;;17.75;;
70545;SDS011;58098;51.680;5.134;2023-11-21T01:15:05;49.07;;;18.43;;
70545;SDS011;58098;51.680;5.134;2023-11-21T01:17:34;48.05;;;18.45;;
70545;SDS011;58098;51.680;5.134;2023-11-21T01:20:00;50.25;;;18.45;;
70545;SDS011;58098;51.680;5.134;2023-11-21T01:22:26;52.00;;;18.42;;
70545;SDS011;58098;51.680;5.134;2023-11-21T01:24:52;47.50;;;18.60;;
70545;SDS011;58098;51.680;5.134;2023-11-21T01:27:18;48.85;;;18.92;;
70545;SDS011;58098;51.680;5.134;2023-11-21T01:29:43;53.90;;;19.47;;
70545;SDS011;58098;51.680;5.134;2023-11-21T01:32:09;44.72;;;17.65;;
70545;SDS011;58098;51.680;5.134;2023-11-21T01:34:35;46.97;;;18.13;;
70545;SDS011;58098;51.680;5.134;2023-11-21T01:37:00;50.43;;;19.27;;
70545;SDS011;58098;51.680;5.134;2023-11-21T01:39:29;47.67;;;19.42;;
70545;SDS011;58098;51.680;5.134;2023-11-21T01:41:55;56.75;;;18.92;;
70545;SDS011;58098;51.680;5.134;2023-11-21T01:44:20;49.47;;;17.67;;
70545;SDS011;58098;51.680;5.134;2023-11-21T01:46:46;44.50;;;16.87;;
70545;SDS011;58098;51.680;5.134;2023-11-21T01:49:13;46.17;;;16.92;;
70545;SDS011;58098;51.680;5.134;2023-11-21T01:51:41;51.58;;;16.63;;
70545;SDS011;58098;51.680;5.134;2023-11-21T01:54:08;47.95;;;16.50;;
70545;SDS011;58098;51.680;5.134;2023-11-21T01:56:34;46.80;;;16.70;;
70545;SDS011;58098;51.680;5.134;2023-11-21T01:58:59;39.17;;;14.88;;
70545;SDS011;58098;51.680;5.134;2023-11-21T02:01:25;69.50;;;19.33;;
70545;SDS011;58098;51.680;5.134;2023-11-21T02:03:51;131.73;;;21.57;;
70545;SDS011;58098;51.680;5.134;2023-11-21T02:06:16;79.43;;;18.17;;
70545;SDS011;58098;51.680;5.134;2023-11-21T02:08:43;79.20;;;19.65;;
70545;SDS011;58098;51.680;5.134;2023-11-21T02:11:09;65.07;;;18.97;;
70545;SDS011;58098;51.680;5.134;2023-11-21T02:13:38;84.70;;;20.80;;
70545;SDS011;58098;51.680;5.134;2023-11-21T02:16:03;72.38;;;20.27;;
70545;SDS011;58098;51.680;5.134;2023-11-21T02:18:30;61.58;;;19.58;;
70545;SDS011;58098;51.680;5.134;2023-11-21T02:20:56;51.47;;;18.37;;
70545;SDS011;58098;51.680;5.134;2023-11-21T02:23:21;53.33;;;20.42;;
70545;SDS011;58098;51.680;5.134;2023-11-21T02:25:48;57.03;;;21.07;;
70545;SDS011;58098;51.680;5.134;2023-11-21T02:28:13;46.17;;;20.38;;
70545;SDS011;58098;51.680;5.134;2023-11-21T02:30:40;52.50;;;21.53;;
70545;SDS011;58098;51.680;5.134;2023-11-21T02:33:05;55.72;;;21.65;;
70545;SDS011;58098;51.680;5.134;2023-11-21T02:35:32;43.73;;;20.07;;
70545;SDS011;58098;51.680;5.134;2023-11-21T02:37:57;48.72;;;20.20;;
70545;SDS011;58098;51.680;5.134;2023-11-21T02:40:23;50.63;;;22.10;;
70545;SDS011;58098;51.680;5.134;2023-11-21T02:42:50;54.47;;;21.98;;
70545;SDS011;58098;51.680;5.134;2023-11-21T02:45:16;47.93;;;21.43;;
70545;SDS011;58098;51.680;5.134;2023-11-21T02:47:43;45.38;;;21.08;;
70545;SDS011;58098;51.680;5.134;2023-11-21T02:50:09;51.40;;;21.98;;
70545;SDS011;58098;51.680;5.134;2023-11-21T02:52:35;54.43;;;21.57;;
70545;SDS011;58098;51.680;5.134;2023-11-21T02:55:01;50.17;;;21.07;;
70545;SDS011;58098;51.680;5.134;2023-11-21T02:57:27;52.08;;;21.55;;
70545;SDS011;58098;51.680;5.134;2023-11-21T02:59:53;46.67;;;19.85;;
70545;SDS011;58098;51.680;5.134;2023-11-21T03:02:18;46.10;;;20.47;;
70545;SDS011;58098;51.680;5.134;2023-11-21T03:04:44;52.50;;;19.90;;
70545;SDS011;58098;51.680;5.134;2023-11-21T03:07:09;48.37;;;19.87;;
70545;SDS011;58098;51.680;5.134;2023-11-21T03:09:35;40.13;;;17.17;;
70545;SDS011;58098;51.680;5.134;2023-11-21T03:12:00;46.93;;;19.30;;
70545;SDS011;58098;51.680;5.134;2023-11-21T03:14:26;45.37;;;18.90;;
70545;SDS011;58098;51.680;5.134;2023-11-21T03:16:51;43.45;;;19.27;;
70545;SDS011;58098;51.680;5.134;2023-11-21T03:19:16;43.47;;;19.63;;
70545;SDS011;58098;51.680;5.134;2023-11-21T03:21:42;45.33;;;19.53;;
70545;SDS011;58098;51.680;5.134;2023-11-21T03:24:07;42.87;;;19.03;;
70545;SDS011;58098;51.680;5.134;2023-11-21T03:26:33;46.78;;;20.42;;
70545;SDS011;58098;51.680;5.134;2023-11-21T03:28:58;48.47;;;18.37;;
70545;SDS011;58098;51.680;5.134;2023-11-21T03:31:24;37.07;;;17.67;;
70545;SDS011;58098;51.680;5.134;2023-11-21T03:33:49;49.53;;;19.90;;
70545;SDS011;58098;51.680;5.134;2023-11-21T03:36:15;47.83;;;18.73;;
70545;SDS011;58098;51.680;5.134;2023-11-21T03:38:41;40.00;;;18.23;;
70545;SDS011;58098;51.680;5.134;2023-11-21T03:41:06;41.77;;;18.70;;
70545;SDS011;58098;51.680;5.134;2023-11-21T03:43:35;44.10;;;18.83;;
70545;SDS011;58098;51.680;5.134;2023-11-21T03:46:00;45.40;;;18.42;;
70545;SDS011;58098;51.680;5.134;2023-11-21T03:48:26;45.70;;;19.73;;
70545;SDS011;58098;51.680;5.134;2023-11-21T03:50:51;40.77;;;17.67;;
70545;SDS011;58098;51.680;5.134;2023-11-21T03:53:16;45.77;;;18.37;;
70545;SDS011;58098;51.680;5.134;2023-11-21T03:55:42;37.60;;;17.40;;
70545;SDS011;58098;51.680;5.134;2023-11-21T03:58:07;43.58;;;18.17;;
70545;SDS011;58098;51.680;5.134;2023-11-21T04:00:32;37.07;;;15.93;;
70545;SDS011;58098;51.680;5.134;2023-11-21T04:02:58;35.00;;;15.93;;
70545;SDS011;58098;51.680;5.134;2023-11-21T04:05:23;45.70;;;17.70;;
70545;SDS011;58098;51.680;5.134;2023-11-21T04:07:49;41.97;;;18.07;;
70545;SDS011;58098;51.680;5.134;2023-11-21T04:10:15;47.97;;;19.92;;
70545;SDS011;58098;51.680;5.134;2023-11-21T04:12:41;39.42;;;17.92;;
70545;SDS011;58098;51.680;5.134;2023-11-21T04:15:07;34.97;;;15.13;;
70545;SDS011;58098;51.680;5.134;2023-11-21T04:17:33;45.58;;;18.63;;
70545;SDS011;58098;51.680;5.134;2023-11-21T04:19:59;49.27;;;18.70;;
70545;SDS011;58098;51.680;5.134;2023-11-21T04:22:24;44.20;;;18.60;;
70545;SDS011;58098;51.680;5.134;2023-11-21T04:24:50;46.03;;;18.00;;
70545;SDS011;58098;51.680;5.134;2023-11-21T04:27:15;46.38;;;18.27;;
70545;SDS011;58098;51.680;5.134;2023-11-21T04:29:43;47.17;;;18.80;;
70545;SDS011;58098;51.680;5.134;2023-11-21T04:32:09;39.83;;;17.40;;
70545;SDS011;58098;51.680;5.134;2023-11-21T04:34:34;49.03;;;18.05;;
70545;SDS011;58098;51.680;5.134;2023-11-21T04:36:59;44.97;;;18.03;;
70545;SDS011;58098;51.680;5.134;2023-11-21T04:39:25;40.40;;;17.70;;
70545;SDS011;58098;51.680;5.134;2023-11-21T04:41:50;44.87;;;18.37;;
70545;SDS011;58098;51.680;5.134;2023-11-21T04:44:16;41.43;;;18.27;;
70545;SDS011;58098;51.680;5.134;2023-11-21T04:46:42;50.10;;;19.73;;
70545;SDS011;58098;51.680;5.134;2023-11-21T04:49:07;49.17;;;19.23;;
70545;SDS011;58098;51.680;5.134;2023-11-21T04:51:32;44.27;;;19.03;;
70545;SDS011;58098;51.680;5.134;2023-11-21T04:53:58;46.67;;;18.98;;
70545;SDS011;58098;51.680;5.134;2023-11-21T04:56:23;51.43;;;20.13;;
70545;SDS011;58098;51.680;5.134;2023-11-21T04:58:49;47.70;;;19.35;;
70545;SDS011;58098;51.680;5.134;2023-11-21T05:01:15;56.20;;;21.17;;
70545;SDS011;58098;51.680;5.134;2023-11-21T05:03:40;40.40;;;16.40;;
70545;SDS011;58098;51.680;5.134;2023-11-21T05:06:06;65.03;;;21.75;;
70545;SDS011;58098;51.680;5.134;2023-11-21T05:08:34;62.45;;;21.60;;
70545;SDS011;58098;51.680;5.134;2023-11-21T05:10:59;52.37;;;19.73;;
70545;SDS011;58098;51.680;5.134;2023-11-21T05:13:25;47.77;;;19.43;;
70545;SDS011;58098;51.680;5.134;2023-11-21T05:15:53;58.58;;;21.02;;
70545;SDS011;58098;51.680;5.134;2023-11-21T05:18:24;68.68;;;22.27;;
70545;SDS011;58098;51.680;5.134;2023-11-21T05:20:54;62.30;;;20.42;;
70545;SDS011;58098;51.680;5.134;2023-11-21T05:23:20;75.40;;;23.67;;
70545;SDS011;58098;51.680;5.134;2023-11-21T05:25:46;78.78;;;24.30;;
70545;SDS011;58098;51.680;5.134;2023-11-21T05:28:11;70.80;;;21.43;;
70545;SDS011;58098;51.680;5.134;2023-11-21T05:30:37;77.43;;;22.53;;
70545;SDS011;58098;51.680;5.134;2023-11-21T05:33:04;78.97;;;21.77;;
70545;SDS011;58098;51.680;5.134;2023-11-21T05:35:30;80.93;;;23.17;;
70545;SDS011;58098;51.680;5.134;2023-11-21T05:37:55;73.43;;;23.27;;
70545;SDS011;58098;51.680;5.134;2023-11-21T05:40:20;79.00;;;25.30;;
70545;SDS011;58098;51.680;5.134;2023-11-21T05:42:47;81.20;;;24.92;;
70545;SDS011;58098;51.680;5.134;2023-11-21T05:45:13;73.38;;;24.33;;
70545;SDS011;58098;51.680;5.134;2023-11-21T05:47:45;84.30;;;25.20;;
70545;SDS011;58098;51.680;5.134;2023-11-21T05:50:15;76.35;;;24.88;;
70545;SDS011;58098;51.680;5.134;2023-11-21T05:52:41;73.47;;;23.58;;
70545;SDS011;58098;51.680;5.134;2023-11-21T05:55:08;67.63;;;22.20;;
70545;SDS011;58098;51.680;5.134;2023-11-21T05:57:34;62.53;;;21.90;;
70545;SDS011;58098;51.680;5.134;2023-11-21T06:00:21;70.22;;;23.08;;
70545;SDS011;58098;51.680;5.134;2023-11-21T06:02:51;67.75;;;22.75;;
70545;SDS011;58098;51.680;5.134;2023-11-21T06:05:22;72.78;;;23.58;;
70545;SDS011;58098;51.680;5.134;2023-11-21T06:07:48;72.17;;;23.87;;
70545;SDS011;58098;51.680;5.134;2023-11-21T06:10:15;63.95;;;22.25;;
70545;SDS011;58098;51.680;5.134;2023-11-21T06:12:42;65.75;;;22.55;;
70545;SDS011;58098;51.680;5.134;2023-11-21T06:15:08;77.43;;;23.80;;
70545;SDS011;58098;51.680;5.134;2023-11-21T06:17:37;70.10;;;21.93;;
70545;SDS011;58098;51.680;5.134;2023-11-21T06:20:03;71.70;;;23.73;;
70545;SDS011;58098;51.680;5.134;2023-11-21T06:22:34;58.83;;;21.00;;
70545;SDS011;58098;51.680;5.134;2023-11-21T06:25:02;62.97;;;21.92;;
70545;SDS011;58098;51.680;5.134;2023-11-21T06:27:31;69.43;;;22.60;;
70545;SDS011;58098;51.680;5.134;2023-11-21T06:29:57;65.03;;;23.10;;
70545;SDS011;58098;51.680;5.134;2023-11-21T06:32:22;73.20;;;23.87;;
70545;SDS011;58098;51.680;5.134;2023-11-21T06:34:48;71.47;;;23.90;;
70545;SDS011;58098;51.680;5.134;2023-11-21T06:37:14;65.82;;;23.15;;
70545;SDS011;58098;51.680;5.134;2023-11-21T06:39:40;70.88;;;23.42;;
70545;SDS011;58098;51.680;5.134;2023-11-21T06:42:05;68.57;;;23.60;;
70545;SDS011;58098;51.680;5.134;2023-11-21T06:44:30;78.30;;;23.40;;
70545;SDS011;58098;51.680;5.134;2023-11-21T06:46:56;79.03;;;24.17;;
70545;SDS011;58098;51.680;5.134;2023-11-21T06:49:21;69.33;;;23.87;;
70545;SDS011;58098;51.680;5.134;2023-11-21T06:51:48;74.15;;;22.92;;
70545;SDS011;58098;51.680;5.134;2023-11-21T06:54:13;72.87;;;23.33;;
70545;SDS011;58098;51.680;5.134;2023-11-21T06:56:39;68.03;;;21.67;;
70545;SDS011;58098;51.680;5.134;2023-11-21T06:59:05;59.77;;;21.30;;
70545;SDS011;58098;51.680;5.134;2023-11-21T07:01:30;68.88;;;21.35;;
70545;SDS011;58098;51.680;5.134;2023-11-21T07:03:59;73.13;;;20.90;;
70545;SDS011;58098;51.680;5.134;2023-11-21T07:06:24;70.90;;;21.70;;
70545;SDS011;58098;51.680;5.134;2023-11-21T07:08:49;67.90;;;21.43;;
70545;SDS011;58098;51.680;5.134;2023-11-21T07:11:15;76.73;;;23.70;;
70545;SDS011;58098;51.680;5.134;2023-11-21T07:13:40;70.20;;;21.57;;
70545;SDS011;58098;51.680;5.134;2023-11-21T07:16:05;73.53;;;23.53;;
70545;SDS011;58098;51.680;5.134;2023-11-21T07:18:31;79.23;;;24.93;;
70545;SDS011;58098;51.680;5.134;2023-11-21T07:20:56;81.77;;;23.77;;
70545;SDS011;58098;51.680;5.134;2023-11-21T07:23:23;74.20;;;22.85;;
70545;SDS011;58098;51.680;5.134;2023-11-21T07:25:49;73.07;;;24.20;;
70545;SDS011;58098;51.680;5.134;2023-11-21T07:28:14;76.53;;;26.33;;
70545;SDS011;58098;51.680;5.134;2023-11-21T07:30:40;79.75;;;25.48;;
70545;SDS011;58098;51.680;5.134;2023-11-21T07:33:05;76.73;;;24.60;;
70545;SDS011;58098;51.680;5.134;2023-11-21T07:35:31;88.60;;;25.27;;
70545;SDS011;58098;51.680;5.134;2023-11-21T07:37:56;82.67;;;25.10;;
70545;SDS011;58098;51.680;5.134;2023-11-21T07:40:22;85.43;;;24.00;;
70545;SDS011;58098;51.680;5.134;2023-11-21T07:42:47;77.30;;;22.83;;
70545;SDS011;58098;51.680;5.134;2023-11-21T07:45:13;82.38;;;22.65;;
70545;SDS011;58098;51.680;5.134;2023-11-21T07:47:40;101.82;;;27.38;;
70545;SDS011;58098;51.680;5.134;2023-11-21T07:50:05;85.10;;;23.57;;
70545;SDS011;58098;51.680;5.134;2023-11-21T07:52:36;93.57;;;25.67;;
70545;SDS011;58098;51.680;5.134;2023-11-21T07:55:02;95.00;;;24.77;;
70545;SDS011;58098;51.680;5.134;2023-11-21T07:57:28;99.83;;;27.73;;
70545;SDS011;58098;51.680;5.134;2023-11-21T07:59:53;85.77;;;23.77;;
70545;SDS011;58098;51.680;5.134;2023-11-21T08:02:20;88.35;;;23.25;;
70545;SDS011;58098;51.680;5.134;2023-11-21T08:04:45;94.03;;;24.73;;
70545;SDS011;58098;51.680;5.134;2023-11-21T08:07:10;88.75;;;24.13;;
70545;SDS011;58098;51.680;5.134;2023-11-21T08:09:36;88.97;;;24.80;;
70545;SDS011;58098;51.680;5.134;2023-11-21T08:12:01;87.63;;;22.87;;
70545;SDS011;58098;51.680;5.134;2023-11-21T08:14:28;85.90;;;23.73;;
70545;SDS011;58098;51.680;5.134;2023-11-21T08:16:53;78.50;;;23.00;;
70545;SDS011;58098;51.680;5.134;2023-11-21T08:19:22;81.80;;;22.25;;
70545;SDS011;58098;51.680;5.134;2023-11-21T08:21:50;82.63;;;22.48;;
70545;SDS011;58098;51.680;5.134;2023-11-21T08:24:16;86.17;;;22.20;;
70545;SDS011;58098;51.680;5.134;2023-11-21T08:26:41;84.18;;;24.25;;
70545;SDS011;58098;51.680;5.134;2023-11-21T08:29:06;82.13;;;22.03;;
70545;SDS011;58098;51.680;5.134;2023-11-21T08:31:32;81.37;;;21.57;;
70545;SDS011;58098;51.680;5.134;2023-11-21T08:33:57;78.63;;;23.17;;
70545;SDS011;58098;51.680;5.134;2023-11-21T08:36:22;75.40;;;22.53;;
70545;SDS011;58098;51.680;5.134;2023-11-21T08:38:49;73.88;;;20.45;;
70545;SDS011;58098;51.680;5.134;2023-11-21T08:41:15;69.83;;;20.13;;
70545;SDS011;58098;51.680;5.134;2023-11-21T08:43:41;66.00;;;20.23;;
70545;SDS011;58098;51.680;5.134;2023-11-21T08:46:07;65.22;;;19.17;;
70545;SDS011;58098;51.680;5.134;2023-11-21T08:48:34;59.60;;;18.00;;
70545;SDS011;58098;51.680;5.134;2023-11-21T08:51:01;59.50;;;17.65;;
70545;SDS011;58098;51.680;5.134;2023-11-21T08:53:26;41.97;;;14.17;;
70545;SDS011;58098;51.680;5.134;2023-11-21T08:55:51;50.00;;;15.73;;
70545;SDS011;58098;51.680;5.134;2023-11-21T08:58:18;53.42;;;16.85;;
70545;SDS011;58098;51.680;5.134;2023-11-21T09:00:44;39.30;;;15.17;;
70545;SDS011;58098;51.680;5.134;2023-11-21T09:03:11;42.75;;;15.57;;
70545;SDS011;58098;51.680;5.134;2023-11-21T09:05:39;38.75;;;13.98;;
70545;SDS011;58098;51.680;5.134;2023-11-21T09:08:05;49.57;;;16.97;;
70545;SDS011;58098;51.680;5.134;2023-11-21T09:10:32;33.30;;;12.80;;
70545;SDS011;58098;51.680;5.134;2023-11-21T09:13:00;43.20;;;16.40;;
70545;SDS011;58098;51.680;5.134;2023-11-21T09:15:26;39.87;;;13.47;;
70545;SDS011;58098;51.680;5.134;2023-11-21T09:17:51;41.40;;;15.73;;
70545;SDS011;58098;51.680;5.134;2023-11-21T09:20:16;41.03;;;15.07;;
70545;SDS011;58098;51.680;5.134;2023-11-21T09:22:42;42.07;;;16.13;;
70545;SDS011;58098;51.680;5.134;2023-11-21T09:25:09;39.47;;;17.40;;
70545;SDS011;58098;51.680;5.134;2023-11-21T09:27:35;45.27;;;17.43;;
70545;SDS011;58098;51.680;5.134;2023-11-21T09:30:03;40.28;;;16.90;;
70545;SDS011;58098;51.680;5.134;2023-11-21T09:32:30;42.35;;;16.40;;
70545;SDS011;58098;51.680;5.134;2023-11-21T09:34:55;34.40;;;15.53;;
70545;SDS011;58098;51.680;5.134;2023-11-21T09:37:23;45.28;;;20.48;;
70545;SDS011;58098;51.680;5.134;2023-11-21T09:39:49;40.08;;;16.95;;
70545;SDS011;58098;51.680;5.134;2023-11-21T09:47:59;34.05;;;14.95;;
70545;SDS011;58098;51.680;5.134;2023-11-21T09:50:26;35.27;;;15.43;;
70545;SDS011;58098;51.680;5.134;2023-11-21T09:55:50;32.13;;;13.00;;
70545;SDS011;58098;51.680;5.134;2023-11-21T09:58:17;26.98;;;13.52;;
70545;SDS011;58098;51.680;5.134;2023-11-21T10:00:45;35.40;;;13.90;;
70545;SDS011;58098;51.680;5.134;2023-11-21T10:03:11;28.73;;;13.30;;
70545;SDS011;58098;51.680;5.134;2023-11-21T10:05:38;30.23;;;14.18;;
70545;SDS011;58098;51.680;5.134;2023-11-21T10:08:07;33.05;;;15.98;;
70545;SDS011;58098;51.680;5.134;2023-11-21T10:10:34;28.90;;;14.07;;
70545;SDS011;58098;51.680;5.134;2023-11-21T10:13:01;29.27;;;12.97;;
70545;SDS011;58098;51.680;5.134;2023-11-21T10:15:28;26.85;;;13.45;;
70545;SDS011;58098;51.680;5.134;2023-11-21T10:17:55;29.90;;;13.15;;
70545;SDS011;58098;51.680;5.134;2023-11-21T10:20:20;29.73;;;13.77;;
70545;SDS011;58098;51.680;5.134;2023-11-21T10:22:49;30.30;;;13.15;;
70545;SDS011;58098;51.680;5.134;2023-11-21T10:25:15;25.40;;;12.48;;
70545;SDS011;58098;51.680;5.134;2023-11-21T10:27:41;29.93;;;12.20;;
70545;SDS011;58098;51.680;5.134;2023-11-21T10:30:08;26.35;;;12.32;;
70545;SDS011;58098;51.680;5.134;2023-11-21T10:32:37;26.17;;;13.32;;
70545;SDS011;58098;51.680;5.134;2023-11-21T10:35:03;28.45;;;12.00;;
70545;SDS011;58098;51.680;5.134;2023-11-21T10:37:35;23.17;;;11.20;;
70545;SDS011;58098;51.680;5.134;2023-11-21T10:40:08;24.77;;;11.03;;
70545;SDS011;58098;51.680;5.134;2023-11-21T10:42:38;21.13;;;10.35;;
70545;SDS011;58098;51.680;5.134;2023-11-21T10:45:04;23.45;;;10.65;;
70545;SDS011;58098;51.680;5.134;2023-11-21T10:47:37;19.70;;;10.20;;
70545;SDS011;58098;51.680;5.134;2023-11-21T10:50:04;20.02;;;10.07;;
70545;SDS011;58098;51.680;5.134;2023-11-21T10:52:30;19.70;;;10.00;;
70545;SDS011;58098;51.680;5.134;2023-11-21T10:54:55;18.00;;;9.27;;
70545;SDS011;58098;51.680;5.134;2023-11-21T10:57:23;15.07;;;9.00;;
70545;SDS011;58098;51.680;5.134;2023-11-21T10:59:50;17.90;;;9.27;;
70545;SDS011;58098;51.680;5.134;2023-11-21T11:02:25;18.52;;;8.32;;
70545;SDS011;58098;51.680;5.134;2023-11-21T11:04:52;15.23;;;8.32;;
70545;SDS011;58098;51.680;5.134;2023-11-21T11:07:20;15.40;;;7.63;;
70545;SDS011;58098;51.680;5.134;2023-11-21T11:09:50;12.27;;;6.90;;
70545;SDS011;58098;51.680;5.134;2023-11-21T11:12:17;17.02;;;7.50;;
70545;SDS011;58098;51.680;5.134;2023-11-21T11:14:44;14.23;;;7.40;;
70545;SDS011;58098;51.680;5.134;2023-11-21T11:17:10;14.73;;;7.82;;
70545;SDS011;58098;51.680;5.134;2023-11-21T11:19:35;14.53;;;6.70;;
70545;SDS011;58098;51.680;5.134;2023-11-21T11:27:52;15.32;;;7.97;;
70545;SDS011;58098;51.680;5.134;2023-11-21T11:39:31;16.15;;;8.40;;
70545;SDS011;58098;51.680;5.134;2023-11-21T11:42:05;16.52;;;9.15;;
70545;SDS011;58098;51.680;5.134;2023-11-21T11:50:02;20.90;;;9.68;;
70545;SDS011;58098;51.680;5.134;2023-11-21T11:52:46;20.40;;;9.75;;
70545;SDS011;58098;51.680;5.134;2023-11-21T11:55:17;17.98;;;10.10;;
70545;SDS011;58098;51.680;5.134;2023-11-21T11:57:43;20.48;;;11.50;;
70545;SDS011;58098;51.680;5.134;2023-11-21T12:00:15;21.90;;;11.07;;
70545;SDS011;58098;51.680;5.134;2023-11-21T12:02:42;20.05;;;10.70;;
70545;SDS011;58098;51.680;5.134;2023-11-21T12:05:10;21.83;;;10.15;;
70545;SDS011;58098;51.680;5.134;2023-11-21T12:07:44;21.80;;;11.73;;
70545;SDS011;58098;51.680;5.134;2023-11-21T12:10:14;21.17;;;12.85;;
70545;SDS011;58098;51.680;5.134;2023-11-21T12:12:45;21.17;;;11.40;;
70545;SDS011;58098;51.680;5.134;2023-11-21T12:15:11;23.60;;;12.43;;
70545;SDS011;58098;51.680;5.134;2023-11-21T12:17:38;19.35;;;10.82;;
70545;SDS011;58098;51.680;5.134;2023-11-21T12:20:04;14.73;;;8.52;;
70545;SDS011;58098;51.680;5.134;2023-11-21T12:22:31;14.77;;;8.77;;
70545;SDS011;58098;51.680;5.134;2023-11-21T12:24:57;12.07;;;7.60;;
70545;SDS011;58098;51.680;5.134;2023-11-21T12:27:22;14.40;;;8.10;;
70545;SDS011;58098;51.680;5.134;2023-11-21T12:29:47;19.83;;;8.63;;
70545;SDS011;58098;51.680;5.134;2023-11-21T12:32:13;13.60;;;8.60;;
70545;SDS011;58098;51.680;5.134;2023-11-21T12:34:43;17.60;;;8.48;;
70545;SDS011;58098;51.680;5.134;2023-11-21T12:37:08;14.47;;;7.87;;
70545;SDS011;58098;51.680;5.134;2023-11-21T12:39:34;16.35;;;8.27;;
70545;SDS011;58098;51.680;5.134;2023-11-21T12:41:59;13.60;;;7.90;;
70545;SDS011;58098;51.680;5.134;2023-11-21T12:44:25;14.83;;;8.13;;
70545;SDS011;58098;51.680;5.134;2023-11-21T12:46:50;14.70;;;7.70;;
70545;SDS011;58098;51.680;5.134;2023-11-21T12:49:17;19.17;;;8.30;;
70545;SDS011;58098;51.680;5.134;2023-11-21T12:51:44;16.08;;;9.13;;
70545;SDS011;58098;51.680;5.134;2023-11-21T12:54:11;15.65;;;9.23;;
70545;SDS011;58098;51.680;5.134;2023-11-21T12:56:38;20.10;;;10.80;;
70545;SDS011;58098;51.680;5.134;2023-11-21T12:59:04;20.33;;;12.23;;
70545;SDS011;58098;51.680;5.134;2023-11-21T13:01:29;24.00;;;11.70;;
70545;SDS011;58098;51.680;5.134;2023-11-21T13:03:56;25.15;;;12.75;;
70545;SDS011;58098;51.680;5.134;2023-11-21T13:06:23;24.83;;;12.35;;
70545;SDS011;58098;51.680;5.134;2023-11-21T13:08:50;21.97;;;11.17;;
70545;SDS011;58098;51.680;5.134;2023-11-21T13:11:16;20.10;;;11.02;;
70545;SDS011;58098;51.680;5.134;2023-11-21T13:13:43;22.92;;;11.93;;
70545;SDS011;58098;51.680;5.134;2023-11-21T13:16:08;22.63;;;11.97;;
70545;SDS011;58098;51.680;5.134;2023-11-21T13:18:35;20.42;;;11.45;;
70545;SDS011;58098;51.680;5.134;2023-11-21T13:21:07;20.05;;;9.93;;
70545;SDS011;58098;51.680;5.134;2023-11-21T13:23:39;17.95;;;10.55;;
70545;SDS011;58098;51.680;5.134;2023-11-21T13:26:07;20.07;;;11.40;;
70545;SDS011;58098;51.680;5.134;2023-11-21T13:28:33;21.85;;;10.88;;
70545;SDS011;58098;51.680;5.134;2023-11-21T13:31:00;22.02;;;11.10;;
70545;SDS011;58098;51.680;5.134;2023-11-21T13:33:45;20.95;;;11.02;;
70545;SDS011;58098;51.680;5.134;2023-11-21T13:36:16;21.15;;;10.38;;
70545;SDS011;58098;51.680;5.134;2023-11-21T13:38:47;17.97;;;9.73;;
70545;SDS011;58098;51.680;5.134;2023-11-21T13:41:13;20.33;;;10.65;;
70545;SDS011;58098;51.680;5.134;2023-11-21T13:43:39;18.15;;;9.85;;
70545;SDS011;58098;51.680;5.134;2023-11-21T13:46:09;18.13;;;9.87;;
70545;SDS011;58098;51.680;5.134;2023-11-21T13:48:45;18.38;;;9.40;;
70545;SDS011;58098;51.680;5.134;2023-11-21T13:51:16;18.58;;;9.50;;
70545;SDS011;58098;51.680;5.134;2023-11-21T13:53:48;15.10;;;8.15;;
70545;SDS011;58098;51.680;5.134;2023-11-21T13:56:16;14.98;;;8.32;;
70545;SDS011;58098;51.680;5.134;2023-11-21T13:58:48;17.13;;;8.80;;
70545;SDS011;58098;51.680;5.134;2023-11-21T14:01:21;17.00;;;8.88;;
70545;SDS011;58098;51.680;5.134;2023-11-21T14:03:57;19.13;;;9.48;;
70545;SDS011;58098;51.680;5.134;2023-11-21T14:06:47;15.48;;;8.68;;
70545;SDS011;58098;51.680;5.134;2023-11-21T14:09:17;15.65;;;8.90;;
70545;SDS011;58098;51.680;5.134;2023-11-21T14:11:48;16.53;;;8.87;;
70545;SDS011;58098;51.680;5.134;2023-11-21T14:14:19;18.55;;;9.35;;
70545;SDS011;58098;51.680;5.134;2023-11-21T14:16:45;22.35;;;10.35;;
70545;SDS011;58098;51.680;5.134;2023-11-21T14:19:10;19.17;;;10.03;;
70545;SDS011;58098;51.680;5.134;2023-11-21T14:21:41;18.63;;;9.35;;
70545;SDS011;58098;51.680;5.134;2023-11-21T14:24:10;20.90;;;11.35;;
70545;SDS011;58098;51.680;5.134;2023-11-21T14:26:40;19.17;;;9.75;;
70545;SDS011;58098;51.680;5.134;2023-11-21T14:29:07;22.10;;;10.33;;
70545;SDS011;58098;51.680;5.134;2023-11-21T14:31:33;18.20;;;10.13;;
70545;SDS011;58098;51.680;5.134;2023-11-21T14:33:59;21.17;;;10.65;;
70545;SDS011;58098;51.680;5.134;2023-11-21T14:36:26;16.15;;;9.77;;
70545;SDS011;58098;51.680;5.134;2023-11-21T14:38:52;19.37;;;10.23;;
70545;SDS011;58098;51.680;5.134;2023-11-21T14:41:18;19.23;;;10.98;;
70545;SDS011;58098;51.680;5.134;2023-11-21T14:43:44;18.25;;;10.23;;
70545;SDS011;58098;51.680;5.134;2023-11-21T14:46:10;20.23;;;10.87;;
70545;SDS011;58098;51.680;5.134;2023-11-21T14:48:39;21.45;;;11.77;;
70545;SDS011;58098;51.680;5.134;2023-11-21T14:51:10;20.67;;;10.80;;